sensor_id;sensor_type;location;lat;lon;timestamp;temperature;humidity
79065;DHT22;68469;51.502;7.462;2023-03-31T00:00:45;20.10;62.20
79065;DHT22;68469;51.502;7.462;2023-03-31T00:03:12;20.10;62.30
79065;DHT22;68469;51.502;7.462;2023-03-31T00:05:40;20.10;62.20
79065;DHT22;68469;51.502;7.462;2023-03-31T00:08:12;20.00;62.30
79065;DHT22;68469;51.502;7.462;2023-03-31T00:10:43;20.10;62.40
79065;DHT22;68469;51.502;7.462;2023-03-31T00:13:11;20.00;62.30
79065;DHT22;68469;51.502;7.462;2023-03-31T00:15:37;20.10;62.30
79065;DHT22;68469;51.502;7.462;2023-03-31T00:18:03;20.00;62.20
79065;DHT22;68469;51.502;7.462;2023-03-31T00:20:29;20.10;62.30
79065;DHT22;68469;51.502;7.462;2023-03-31T00:22:58;20.10;62.40
79065;DHT22;68469;51.502;7.462;2023-03-31T00:25:25;20.10;62.40
79065;DHT22;68469;51.502;7.462;2023-03-31T00:27:51;20.00;62.30
79065;DHT22;68469;51.502;7.462;2023-03-31T00:30:17;20.00;62.30
79065;DHT22;68469;51.502;7.462;2023-03-31T00:32:43;20.00;62.20
79065;DHT22;68469;51.502;7.462;2023-03-31T00:35:09;20.00;62.20
79065;DHT22;68469;51.502;7.462;2023-03-31T00:37:35;20.10;62.30
79065;DHT22;68469;51.502;7.462;2023-03-31T00:40:00;20.10;62.30
79065;DHT22;68469;51.502;7.462;2023-03-31T00:42:27;20.00;62.30
79065;DHT22;68469;51.502;7.462;2023-03-31T00:48:15;20.00;62.30
79065;DHT22;68469;51.502;7.462;2023-03-31T00:50:45;20.00;62.30
79065;DHT22;68469;51.502;7.462;2023-03-31T00:53:15;20.00;62.20
79065;DHT22;68469;51.502;7.462;2023-03-31T00:55:49;20.00;62.20
79065;DHT22;68469;51.502;7.462;2023-03-31T00:58:16;20.00;62.20
79065;DHT22;68469;51.502;7.462;2023-03-31T01:00:48;20.00;62.10
79065;DHT22;68469;51.502;7.462;2023-03-31T01:03:15;20.00;62.20
79065;DHT22;68469;51.502;7.462;2023-03-31T01:05:46;20.00;62.30
79065;DHT22;68469;51.502;7.462;2023-03-31T01:08:15;20.00;62.20
79065;DHT22;68469;51.502;7.462;2023-03-31T01:10:51;20.00;62.30
79065;DHT22;68469;51.502;7.462;2023-03-31T01:13:18;20.00;62.30
79065;DHT22;68469;51.502;7.462;2023-03-31T01:15:44;20.00;62.30
79065;DHT22;68469;51.502;7.462;2023-03-31T01:18:11;20.00;62.30
79065;DHT22;68469;51.502;7.462;2023-03-31T01:29:35;20.00;62.20
79065;DHT22;68469;51.502;7.462;2023-03-31T01:46:41;20.00;62.20
79065;DHT22;68469;51.502;7.462;2023-03-31T01:49:37;20.00;62.20
79065;DHT22;68469;51.502;7.462;2023-03-31T01:52:33;20.00;62.30
79065;DHT22;68469;51.502;7.462;2023-03-31T01:55:21;20.00;62.30
79065;DHT22;68469;51.502;7.462;2023-03-31T02:00:33;20.00;62.30
79065;DHT22;68469;51.502;7.462;2023-03-31T02:03:03;20.00;62.40
79065;DHT22;68469;51.502;7.462;2023-03-31T02:05:34;20.00;62.30
79065;DHT22;68469;51.502;7.462;2023-03-31T02:08:07;20.00;62.30
79065;DHT22;68469;51.502;7.462;2023-03-31T02:10:35;19.90;62.10
79065;DHT22;68469;51.502;7.462;2023-03-31T02:13:02;20.00;62.20
79065;DHT22;68469;51.502;7.462;2023-03-31T02:15:32;20.00;62.20
79065;DHT22;68469;51.502;7.462;2023-03-31T02:18:01;20.00;62.20
79065;DHT22;68469;51.502;7.462;2023-03-31T02:20:31;20.00;62.20
79065;DHT22;68469;51.502;7.462;2023-03-31T02:22:58;20.00;62.20
79065;DHT22;68469;51.502;7.462;2023-03-31T02:25:31;19.90;62.20
79065;DHT22;68469;51.502;7.462;2023-03-31T02:28:02;20.00;62.30
79065;DHT22;68469;51.502;7.462;2023-03-31T02:30:50;20.00;62.30
79065;DHT22;68469;51.502;7.462;2023-03-31T02:33:17;19.90;62.20
79065;DHT22;68469;51.502;7.462;2023-03-31T02:35:43;19.90;62.20
79065;DHT22;68469;51.502;7.462;2023-03-31T02:38:09;20.00;62.40
79065;DHT22;68469;51.502;7.462;2023-03-31T02:40:36;19.90;62.20
79065;DHT22;68469;51.502;7.462;2023-03-31T02:43:02;20.00;62.40
79065;DHT22;68469;51.502;7.462;2023-03-31T02:48:29;20.00;62.20
79065;DHT22;68469;51.502;7.462;2023-03-31T02:58:56;19.90;62.20
79065;DHT22;68469;51.502;7.462;2023-03-31T03:07:12;19.90;62.20
79065;DHT22;68469;51.502;7.462;2023-03-31T03:10:01;19.90;62.20
79065;DHT22;68469;51.502;7.462;2023-03-31T03:12:37;20.00;62.20
79065;DHT22;68469;51.502;7.462;2023-03-31T03:17:43;19.90;62.20
79065;DHT22;68469;51.502;7.462;2023-03-31T03:20:10;19.90;62.10
79065;DHT22;68469;51.502;7.462;2023-03-31T03:22:38;19.90;62.20
79065;DHT22;68469;51.502;7.462;2023-03-31T03:25:09;19.90;62.20
79065;DHT22;68469;51.502;7.462;2023-03-31T03:27:35;19.90;62.20
79065;DHT22;68469;51.502;7.462;2023-03-31T03:30:05;19.90;62.20
79065;DHT22;68469;51.502;7.462;2023-03-31T03:32:31;19.90;62.20
79065;DHT22;68469;51.502;7.462;2023-03-31T03:34:58;19.90;62.20
79065;DHT22;68469;51.502;7.462;2023-03-31T03:37:24;19.90;62.20
79065;DHT22;68469;51.502;7.462;2023-03-31T03:39:50;19.90;62.20
79065;DHT22;68469;51.502;7.462;2023-03-31T03:42:15;19.90;62.20
79065;DHT22;68469;51.502;7.462;2023-03-31T03:44:41;19.90;62.20
79065;DHT22;68469;51.502;7.462;2023-03-31T03:47:07;19.90;62.20
79065;DHT22;68469;51.502;7.462;2023-03-31T03:49:32;19.90;62.10
79065;DHT22;68469;51.502;7.462;2023-03-31T03:51:58;19.90;62.10
79065;DHT22;68469;51.502;7.462;2023-03-31T03:54:24;19.90;62.20
79065;DHT22;68469;51.502;7.462;2023-03-31T03:56:49;19.90;62.20
79065;DHT22;68469;51.502;7.462;2023-03-31T03:59:15;19.90;62.20
79065;DHT22;68469;51.502;7.462;2023-03-31T04:01:41;19.90;62.20
79065;DHT22;68469;51.502;7.462;2023-03-31T04:04:06;19.90;62.20
79065;DHT22;68469;51.502;7.462;2023-03-31T04:06:32;19.90;62.30
79065;DHT22;68469;51.502;7.462;2023-03-31T04:08:57;19.90;62.30
79065;DHT22;68469;51.502;7.462;2023-03-31T04:11:23;19.90;62.30
79065;DHT22;68469;51.502;7.462;2023-03-31T04:13:49;19.90;62.20
79065;DHT22;68469;51.502;7.462;2023-03-31T04:16:14;19.90;62.20
79065;DHT22;68469;51.502;7.462;2023-03-31T04:18:41;19.90;62.30
79065;DHT22;68469;51.502;7.462;2023-03-31T04:21:11;19.90;62.30
79065;DHT22;68469;51.502;7.462;2023-03-31T04:23:40;19.90;62.20
79065;DHT22;68469;51.502;7.462;2023-03-31T04:26:13;19.90;62.20
79065;DHT22;68469;51.502;7.462;2023-03-31T04:28:39;19.90;62.30
79065;DHT22;68469;51.502;7.462;2023-03-31T04:31:09;19.90;62.30
79065;DHT22;68469;51.502;7.462;2023-03-31T04:33:35;19.90;62.20
79065;DHT22;68469;51.502;7.462;2023-03-31T04:36:04;19.90;62.40
79065;DHT22;68469;51.502;7.462;2023-03-31T04:38:42;19.90;62.20
79065;DHT22;68469;51.502;7.462;2023-03-31T04:41:12;19.90;62.40
79065;DHT22;68469;51.502;7.462;2023-03-31T04:43:41;19.90;62.30
79065;DHT22;68469;51.502;7.462;2023-03-31T04:46:07;19.90;62.80
79065;DHT22;68469;51.502;7.462;2023-03-31T04:48:33;19.90;62.30
79065;DHT22;68469;51.502;7.462;2023-03-31T04:50:58;19.90;62.30
79065;DHT22;68469;51.502;7.462;2023-03-31T04:53:24;19.90;62.20
79065;DHT22;68469;51.502;7.462;2023-03-31T04:55:50;19.90;62.20
79065;DHT22;68469;51.502;7.462;2023-03-31T04:58:16;19.90;62.30
79065;DHT22;68469;51.502;7.462;2023-03-31T05:00:42;19.90;62.30
79065;DHT22;68469;51.502;7.462;2023-03-31T05:03:07;19.90;62.20
79065;DHT22;68469;51.502;7.462;2023-03-31T05:05:34;19.90;62.20
79065;DHT22;68469;51.502;7.462;2023-03-31T05:08:00;19.90;62.20
79065;DHT22;68469;51.502;7.462;2023-03-31T05:10:26;19.90;62.20
79065;DHT22;68469;51.502;7.462;2023-03-31T05:12:51;20.00;62.10
79065;DHT22;68469;51.502;7.462;2023-03-31T05:15:17;19.90;62.10
79065;DHT22;68469;51.502;7.462;2023-03-31T05:17:43;20.00;62.00
79065;DHT22;68469;51.502;7.462;2023-03-31T05:20:09;19.90;62.00
79065;DHT22;68469;51.502;7.462;2023-03-31T05:22:37;19.90;62.20
79065;DHT22;68469;51.502;7.462;2023-03-31T05:25:04;19.90;62.10
79065;DHT22;68469;51.502;7.462;2023-03-31T05:27:30;19.90;62.00
79065;DHT22;68469;51.502;7.462;2023-03-31T05:29:56;19.90;62.00
79065;DHT22;68469;51.502;7.462;2023-03-31T05:32:23;19.90;62.00
79065;DHT22;68469;51.502;7.462;2023-03-31T05:34:48;19.90;62.00
79065;DHT22;68469;51.502;7.462;2023-03-31T05:37:19;19.90;62.10
79065;DHT22;68469;51.502;7.462;2023-03-31T05:39:45;19.90;62.00
79065;DHT22;68469;51.502;7.462;2023-03-31T05:42:11;19.90;62.10
79065;DHT22;68469;51.502;7.462;2023-03-31T05:44:37;19.90;62.10
79065;DHT22;68469;51.502;7.462;2023-03-31T05:47:02;19.90;62.10
79065;DHT22;68469;51.502;7.462;2023-03-31T05:49:28;19.90;62.00
79065;DHT22;68469;51.502;7.462;2023-03-31T05:51:53;19.80;62.00
79065;DHT22;68469;51.502;7.462;2023-03-31T05:54:20;19.90;62.10
79065;DHT22;68469;51.502;7.462;2023-03-31T05:56:47;19.90;62.20
79065;DHT22;68469;51.502;7.462;2023-03-31T05:59:12;19.90;62.10
79065;DHT22;68469;51.502;7.462;2023-03-31T06:01:38;19.90;62.00
79065;DHT22;68469;51.502;7.462;2023-03-31T06:04:04;19.90;62.10
79065;DHT22;68469;51.502;7.462;2023-03-31T06:06:29;19.90;62.00
79065;DHT22;68469;51.502;7.462;2023-03-31T06:08:57;19.90;62.10
79065;DHT22;68469;51.502;7.462;2023-03-31T06:11:23;19.90;62.10
79065;DHT22;68469;51.502;7.462;2023-03-31T06:13:48;19.90;62.00
79065;DHT22;68469;51.502;7.462;2023-03-31T06:16:16;19.90;62.10
79065;DHT22;68469;51.502;7.462;2023-03-31T06:18:42;19.90;62.10
79065;DHT22;68469;51.502;7.462;2023-03-31T06:21:14;19.90;62.00
79065;DHT22;68469;51.502;7.462;2023-03-31T06:23:41;19.90;62.00
79065;DHT22;68469;51.502;7.462;2023-03-31T06:26:17;19.90;62.70
79065;DHT22;68469;51.502;7.462;2023-03-31T06:28:44;19.90;62.10
79065;DHT22;68469;51.502;7.462;2023-03-31T06:31:12;19.80;62.00
79065;DHT22;68469;51.502;7.462;2023-03-31T06:33:39;19.90;61.90
79065;DHT22;68469;51.502;7.462;2023-03-31T06:36:06;19.80;61.60
79065;DHT22;68469;51.502;7.462;2023-03-31T06:38:33;19.80;61.50
79065;DHT22;68469;51.502;7.462;2023-03-31T06:40:59;19.80;61.40
79065;DHT22;68469;51.502;7.462;2023-03-31T06:43:25;19.80;61.40
79065;DHT22;68469;51.502;7.462;2023-03-31T06:45:54;19.80;61.30
79065;DHT22;68469;51.502;7.462;2023-03-31T06:48:22;19.80;61.40
79065;DHT22;68469;51.502;7.462;2023-03-31T06:50:48;19.80;61.50
79065;DHT22;68469;51.502;7.462;2023-03-31T06:53:14;19.80;61.70
79065;DHT22;68469;51.502;7.462;2023-03-31T06:55:40;19.80;61.60
79065;DHT22;68469;51.502;7.462;2023-03-31T06:58:05;19.80;61.60
79065;DHT22;68469;51.502;7.462;2023-03-31T07:00:32;19.80;61.70
79065;DHT22;68469;51.502;7.462;2023-03-31T07:02:58;19.80;61.70
79065;DHT22;68469;51.502;7.462;2023-03-31T07:05:23;19.80;61.70
79065;DHT22;68469;51.502;7.462;2023-03-31T07:07:56;19.90;61.20
79065;DHT22;68469;51.502;7.462;2023-03-31T07:10:23;19.90;60.70
79065;DHT22;68469;51.502;7.462;2023-03-31T07:12:49;19.80;60.40
79065;DHT22;68469;51.502;7.462;2023-03-31T07:15:15;19.80;60.40
79065;DHT22;68469;51.502;7.462;2023-03-31T07:17:40;19.80;60.70
79065;DHT22;68469;51.502;7.462;2023-03-31T07:20:08;19.70;58.70
79065;DHT22;68469;51.502;7.462;2023-03-31T07:22:37;19.60;59.00
79065;DHT22;68469;51.502;7.462;2023-03-31T07:25:07;19.60;59.20
79065;DHT22;68469;51.502;7.462;2023-03-31T07:27:33;19.50;59.40
79065;DHT22;68469;51.502;7.462;2023-03-31T07:29:58;19.50;60.70
79065;DHT22;68469;51.502;7.462;2023-03-31T07:32:24;19.60;60.10
79065;DHT22;68469;51.502;7.462;2023-03-31T07:34:49;19.60;59.90
79065;DHT22;68469;51.502;7.462;2023-03-31T07:37:15;19.60;59.70
79065;DHT22;68469;51.502;7.462;2023-03-31T07:39:41;19.60;59.60
79065;DHT22;68469;51.502;7.462;2023-03-31T07:42:07;19.60;59.50
79065;DHT22;68469;51.502;7.462;2023-03-31T07:44:33;19.60;59.50
79065;DHT22;68469;51.502;7.462;2023-03-31T07:46:59;19.60;59.70
79065;DHT22;68469;51.502;7.462;2023-03-31T07:49:29;19.60;59.90
79065;DHT22;68469;51.502;7.462;2023-03-31T07:51:55;19.60;60.10
79065;DHT22;68469;51.502;7.462;2023-03-31T07:54:21;19.60;60.10
79065;DHT22;68469;51.502;7.462;2023-03-31T07:56:47;19.60;60.20
79065;DHT22;68469;51.502;7.462;2023-03-31T07:59:12;19.60;60.30
79065;DHT22;68469;51.502;7.462;2023-03-31T08:01:38;19.60;60.30
79065;DHT22;68469;51.502;7.462;2023-03-31T08:04:04;19.60;60.50
79065;DHT22;68469;51.502;7.462;2023-03-31T08:06:30;19.70;60.60
79065;DHT22;68469;51.502;7.462;2023-03-31T08:08:56;19.60;60.50
79065;DHT22;68469;51.502;7.462;2023-03-31T08:11:22;19.70;60.60
79065;DHT22;68469;51.502;7.462;2023-03-31T08:13:49;19.60;60.50
79065;DHT22;68469;51.502;7.462;2023-03-31T08:16:15;19.70;61.20
79065;DHT22;68469;51.502;7.462;2023-03-31T08:18:41;19.70;60.70
79065;DHT22;68469;51.502;7.462;2023-03-31T08:21:07;19.70;60.60
79065;DHT22;68469;51.502;7.462;2023-03-31T08:23:34;19.70;60.80
79065;DHT22;68469;51.502;7.462;2023-03-31T08:26:12;19.80;60.80
79065;DHT22;68469;51.502;7.462;2023-03-31T08:28:38;19.80;60.60
79065;DHT22;68469;51.502;7.462;2023-03-31T08:31:06;19.80;60.40
79065;DHT22;68469;51.502;7.462;2023-03-31T08:33:32;19.80;61.00
79065;DHT22;68469;51.502;7.462;2023-03-31T08:36:01;19.80;60.60
79065;DHT22;68469;51.502;7.462;2023-03-31T08:38:28;20.00;62.40
79065;DHT22;68469;51.502;7.462;2023-03-31T08:41:01;20.10;61.20
79065;DHT22;68469;51.502;7.462;2023-03-31T08:43:34;20.40;61.10
79065;DHT22;68469;51.502;7.462;2023-03-31T08:46:03;20.40;60.60
79065;DHT22;68469;51.502;7.462;2023-03-31T08:48:40;20.50;60.40
79065;DHT22;68469;51.502;7.462;2023-03-31T08:51:17;20.50;60.20
79065;DHT22;68469;51.502;7.462;2023-03-31T08:54:01;20.40;60.70
79065;DHT22;68469;51.502;7.462;2023-03-31T08:56:29;20.40;60.90
79065;DHT22;68469;51.502;7.462;2023-03-31T08:58:57;20.40;60.20
79065;DHT22;68469;51.502;7.462;2023-03-31T09:01:43;20.30;59.80
79065;DHT22;68469;51.502;7.462;2023-03-31T09:08:12;20.20;60.10
79065;DHT22;68469;51.502;7.462;2023-03-31T09:12:49;20.10;60.20
79065;DHT22;68469;51.502;7.462;2023-03-31T09:15:31;20.10;60.10
79065;DHT22;68469;51.502;7.462;2023-03-31T09:18:12;20.10;61.10
79065;DHT22;68469;51.502;7.462;2023-03-31T09:20:44;20.10;60.70
79065;DHT22;68469;51.502;7.462;2023-03-31T09:23:25;20.20;60.30
79065;DHT22;68469;51.502;7.462;2023-03-31T09:25:53;20.10;60.30
79065;DHT22;68469;51.502;7.462;2023-03-31T09:28:23;20.10;60.90
79065;DHT22;68469;51.502;7.462;2023-03-31T09:30:50;20.20;62.10
79065;DHT22;68469;51.502;7.462;2023-03-31T09:33:21;20.10;60.50
79065;DHT22;68469;51.502;7.462;2023-03-31T09:35:51;20.20;60.40
79065;DHT22;68469;51.502;7.462;2023-03-31T09:38:17;20.10;60.20
79065;DHT22;68469;51.502;7.462;2023-03-31T09:40:42;20.10;60.30
79065;DHT22;68469;51.502;7.462;2023-03-31T09:43:21;20.10;60.30
79065;DHT22;68469;51.502;7.462;2023-03-31T09:45:48;20.10;60.40
79065;DHT22;68469;51.502;7.462;2023-03-31T09:48:17;20.10;60.70
79065;DHT22;68469;51.502;7.462;2023-03-31T09:51:00;20.10;60.70
79065;DHT22;68469;51.502;7.462;2023-03-31T09:55:54;20.10;60.70
79065;DHT22;68469;51.502;7.462;2023-03-31T09:58:21;20.10;60.50
79065;DHT22;68469;51.502;7.462;2023-03-31T10:01:04;20.10;60.70
79065;DHT22;68469;51.502;7.462;2023-03-31T10:03:50;20.10;60.90
79065;DHT22;68469;51.502;7.462;2023-03-31T10:06:18;20.10;61.00
79065;DHT22;68469;51.502;7.462;2023-03-31T10:09:00;20.10;60.80
79065;DHT22;68469;51.502;7.462;2023-03-31T10:11:27;20.00;60.90
79065;DHT22;68469;51.502;7.462;2023-03-31T10:14:13;20.00;60.90
79065;DHT22;68469;51.502;7.462;2023-03-31T10:16:49;20.00;60.90
79065;DHT22;68469;51.502;7.462;2023-03-31T10:19:25;20.00;60.90
79065;DHT22;68469;51.502;7.462;2023-03-31T10:22:00;20.00;61.10
79065;DHT22;68469;51.502;7.462;2023-03-31T10:24:38;20.00;61.10
79065;DHT22;68469;51.502;7.462;2023-03-31T10:27:12;20.00;61.10
79065;DHT22;68469;51.502;7.462;2023-03-31T10:29:41;20.00;61.00
79065;DHT22;68469;51.502;7.462;2023-03-31T10:32:27;20.00;61.10
79065;DHT22;68469;51.502;7.462;2023-03-31T10:34:55;20.00;61.10
79065;DHT22;68469;51.502;7.462;2023-03-31T10:37:23;20.00;60.90
79065;DHT22;68469;51.502;7.462;2023-03-31T10:39:58;20.00;60.90
79065;DHT22;68469;51.502;7.462;2023-03-31T10:42:26;20.00;61.10
79065;DHT22;68469;51.502;7.462;2023-03-31T10:47:39;20.00;61.10
79065;DHT22;68469;51.502;7.462;2023-03-31T10:50:15;20.00;61.10
79065;DHT22;68469;51.502;7.462;2023-03-31T10:52:44;20.00;61.10
79065;DHT22;68469;51.502;7.462;2023-03-31T10:55:22;20.00;61.00
79065;DHT22;68469;51.502;7.462;2023-03-31T10:57:56;20.00;61.20
79065;DHT22;68469;51.502;7.462;2023-03-31T11:08:35;20.00;61.10
79065;DHT22;68469;51.502;7.462;2023-03-31T11:11:23;20.00;61.00
79065;DHT22;68469;51.502;7.462;2023-03-31T11:16:42;20.10;60.70
79065;DHT22;68469;51.502;7.462;2023-03-31T11:19:30;20.20;60.60
79065;DHT22;68469;51.502;7.462;2023-03-31T11:22:18;20.20;60.20
79065;DHT22;68469;51.502;7.462;2023-03-31T11:41:06;20.30;61.60
79065;DHT22;68469;51.502;7.462;2023-03-31T11:43:46;20.20;61.80
79065;DHT22;68469;51.502;7.462;2023-03-31T11:46:22;20.20;61.70
79065;DHT22;68469;51.502;7.462;2023-03-31T11:48:57;20.30;61.50
79065;DHT22;68469;51.502;7.462;2023-03-31T11:53:57;20.20;61.10
79065;DHT22;68469;51.502;7.462;2023-03-31T11:56:28;20.20;60.70
79065;DHT22;68469;51.502;7.462;2023-03-31T11:58:58;20.20;61.00
79065;DHT22;68469;51.502;7.462;2023-03-31T12:01:34;20.20;61.30
79065;DHT22;68469;51.502;7.462;2023-03-31T12:04:32;20.20;62.00
79065;DHT22;68469;51.502;7.462;2023-03-31T12:10:18;20.20;61.80
79065;DHT22;68469;51.502;7.462;2023-03-31T12:15:22;20.30;61.40
79065;DHT22;68469;51.502;7.462;2023-03-31T12:18:02;20.30;60.80
79065;DHT22;68469;51.502;7.462;2023-03-31T12:20:41;20.30;61.40
79065;DHT22;68469;51.502;7.462;2023-03-31T12:23:22;20.30;60.90
79065;DHT22;68469;51.502;7.462;2023-03-31T12:28:24;20.40;60.70
79065;DHT22;68469;51.502;7.462;2023-03-31T12:30:53;20.40;61.40
79065;DHT22;68469;51.502;7.462;2023-03-31T12:34:03;20.40;61.70
79065;DHT22;68469;51.502;7.462;2023-03-31T12:47:20;20.40;61.20
79065;DHT22;68469;51.502;7.462;2023-03-31T13:11:39;20.30;60.90
79065;DHT22;68469;51.502;7.462;2023-03-31T13:14:06;20.30;60.90
79065;DHT22;68469;51.502;7.462;2023-03-31T13:16:37;20.30;60.70
79065;DHT22;68469;51.502;7.462;2023-03-31T13:19:03;20.30;60.90
79065;DHT22;68469;51.502;7.462;2023-03-31T13:21:28;20.30;60.90
79065;DHT22;68469;51.502;7.462;2023-03-31T13:23:59;20.20;60.70
79065;DHT22;68469;51.502;7.462;2023-03-31T13:26:34;20.30;60.90
79065;DHT22;68469;51.502;7.462;2023-03-31T13:34:41;20.30;62.70
79065;DHT22;68469;51.502;7.462;2023-03-31T13:45:09;20.30;61.40
79065;DHT22;68469;51.502;7.462;2023-03-31T13:56:18;20.20;61.70
79065;DHT22;68469;51.502;7.462;2023-03-31T14:02:26;20.20;61.70
79065;DHT22;68469;51.502;7.462;2023-03-31T14:09:58;20.20;61.50
79065;DHT22;68469;51.502;7.462;2023-03-31T14:14:55;20.30;61.70
79065;DHT22;68469;51.502;7.462;2023-03-31T14:17:38;20.20;61.80
79065;DHT22;68469;51.502;7.462;2023-03-31T14:26:08;20.20;61.70
79065;DHT22;68469;51.502;7.462;2023-03-31T14:29:00;20.20;61.70
79065;DHT22;68469;51.502;7.462;2023-03-31T14:37:12;20.20;61.80
79065;DHT22;68469;51.502;7.462;2023-03-31T14:39:46;20.20;61.70
79065;DHT22;68469;51.502;7.462;2023-03-31T14:42:21;20.20;61.70
79065;DHT22;68469;51.502;7.462;2023-03-31T14:44:55;20.20;61.90
79065;DHT22;68469;51.502;7.462;2023-03-31T14:47:23;20.20;61.80
79065;DHT22;68469;51.502;7.462;2023-03-31T14:52:29;20.20;61.80
79065;DHT22;68469;51.502;7.462;2023-03-31T14:54:55;20.20;61.90
79065;DHT22;68469;51.502;7.462;2023-03-31T14:57:34;20.20;61.70
79065;DHT22;68469;51.502;7.462;2023-03-31T15:00:04;20.10;61.80
79065;DHT22;68469;51.502;7.462;2023-03-31T15:02:35;20.10;61.70
79065;DHT22;68469;51.502;7.462;2023-03-31T15:05:07;20.20;61.80
79065;DHT22;68469;51.502;7.462;2023-03-31T15:07:34;20.10;61.70
79065;DHT22;68469;51.502;7.462;2023-03-31T15:10:01;20.20;61.60
79065;DHT22;68469;51.502;7.462;2023-03-31T15:12:28;20.20;61.60
79065;DHT22;68469;51.502;7.462;2023-03-31T15:14:57;20.20;61.70
79065;DHT22;68469;51.502;7.462;2023-03-31T15:17:28;20.20;62.30
79065;DHT22;68469;51.502;7.462;2023-03-31T15:19:59;20.30;62.20
79065;DHT22;68469;51.502;7.462;2023-03-31T15:22:26;20.20;61.60
79065;DHT22;68469;51.502;7.462;2023-03-31T15:24:53;20.20;61.40
79065;DHT22;68469;51.502;7.462;2023-03-31T15:27:41;20.20;61.60
79065;DHT22;68469;51.502;7.462;2023-03-31T15:30:28;20.20;61.70
79065;DHT22;68469;51.502;7.462;2023-03-31T15:32:54;20.20;61.90
79065;DHT22;68469;51.502;7.462;2023-03-31T15:35:27;20.20;61.60
79065;DHT22;68469;51.502;7.462;2023-03-31T15:37:55;20.20;61.70
79065;DHT22;68469;51.502;7.462;2023-03-31T15:40:25;20.20;61.80
79065;DHT22;68469;51.502;7.462;2023-03-31T15:45:55;20.10;61.80
79065;DHT22;68469;51.502;7.462;2023-03-31T15:48:33;20.10;60.90
79065;DHT22;68469;51.502;7.462;2023-03-31T15:53:44;20.10;61.10
79065;DHT22;68469;51.502;7.462;2023-03-31T15:56:24;20.10;60.90
79065;DHT22;68469;51.502;7.462;2023-03-31T15:58:58;20.20;60.90
79065;DHT22;68469;51.502;7.462;2023-03-31T16:01:33;20.10;60.80
79065;DHT22;68469;51.502;7.462;2023-03-31T16:04:04;20.10;60.90
79065;DHT22;68469;51.502;7.462;2023-03-31T16:10:08;20.10;60.70
79065;DHT22;68469;51.502;7.462;2023-03-31T16:15:20;20.10;61.40
79065;DHT22;68469;51.502;7.462;2023-03-31T16:17:56;20.10;61.00
79065;DHT22;68469;51.502;7.462;2023-03-31T16:20:26;20.10;61.60
79065;DHT22;68469;51.502;7.462;2023-03-31T16:22:55;20.10;61.60
79065;DHT22;68469;51.502;7.462;2023-03-31T16:25:26;20.10;60.80
79065;DHT22;68469;51.502;7.462;2023-03-31T16:27:58;20.10;62.70
79065;DHT22;68469;51.502;7.462;2023-03-31T16:30:37;20.10;61.80
79065;DHT22;68469;51.502;7.462;2023-03-31T16:33:11;20.10;61.40
79065;DHT22;68469;51.502;7.462;2023-03-31T16:35:45;20.10;61.60
79065;DHT22;68469;51.502;7.462;2023-03-31T16:38:15;20.10;62.20
79065;DHT22;68469;51.502;7.462;2023-03-31T16:40:43;20.10;61.90
79065;DHT22;68469;51.502;7.462;2023-03-31T16:43:14;20.10;62.80
79065;DHT22;68469;51.502;7.462;2023-03-31T16:45:43;20.20;63.00
79065;DHT22;68469;51.502;7.462;2023-03-31T16:48:09;20.20;62.40
79065;DHT22;68469;51.502;7.462;2023-03-31T16:50:35;20.20;62.00
79065;DHT22;68469;51.502;7.462;2023-03-31T16:53:01;20.20;62.30
79065;DHT22;68469;51.502;7.462;2023-03-31T16:55:28;20.20;62.30
79065;DHT22;68469;51.502;7.462;2023-03-31T16:57:56;20.20;62.20
79065;DHT22;68469;51.502;7.462;2023-03-31T17:00:23;20.10;62.30
79065;DHT22;68469;51.502;7.462;2023-03-31T17:02:49;20.20;62.40
79065;DHT22;68469;51.502;7.462;2023-03-31T17:05:15;20.10;62.40
79065;DHT22;68469;51.502;7.462;2023-03-31T17:07:41;20.10;62.50
79065;DHT22;68469;51.502;7.462;2023-03-31T17:10:07;20.10;62.50
79065;DHT22;68469;51.502;7.462;2023-03-31T17:12:32;20.10;62.40
79065;DHT22;68469;51.502;7.462;2023-03-31T17:14:58;20.10;62.40
79065;DHT22;68469;51.502;7.462;2023-03-31T17:17:24;20.10;62.50
79065;DHT22;68469;51.502;7.462;2023-03-31T17:19:49;20.10;62.50
79065;DHT22;68469;51.502;7.462;2023-03-31T17:22:15;20.10;62.50
79065;DHT22;68469;51.502;7.462;2023-03-31T17:24:41;20.10;62.50
79065;DHT22;68469;51.502;7.462;2023-03-31T17:27:06;20.10;62.50
79065;DHT22;68469;51.502;7.462;2023-03-31T17:29:32;20.10;62.50
79065;DHT22;68469;51.502;7.462;2023-03-31T17:31:58;20.10;62.60
79065;DHT22;68469;51.502;7.462;2023-03-31T17:34:23;20.00;62.50
79065;DHT22;68469;51.502;7.462;2023-03-31T17:36:49;20.00;62.50
79065;DHT22;68469;51.502;7.462;2023-03-31T17:39:15;20.10;62.50
79065;DHT22;68469;51.502;7.462;2023-03-31T17:41:41;20.10;62.60
79065;DHT22;68469;51.502;7.462;2023-03-31T17:44:07;20.00;62.50
79065;DHT22;68469;51.502;7.462;2023-03-31T17:46:33;20.00;62.60
79065;DHT22;68469;51.502;7.462;2023-03-31T17:48:59;20.00;62.60
79065;DHT22;68469;51.502;7.462;2023-03-31T17:51:25;20.00;62.60
79065;DHT22;68469;51.502;7.462;2023-03-31T17:53:52;20.00;62.60
79065;DHT22;68469;51.502;7.462;2023-03-31T17:56:18;20.00;62.60
79065;DHT22;68469;51.502;7.462;2023-03-31T17:58:44;20.00;62.60
79065;DHT22;68469;51.502;7.462;2023-03-31T18:01:11;20.00;62.70
79065;DHT22;68469;51.502;7.462;2023-03-31T18:03:37;20.00;62.60
79065;DHT22;68469;51.502;7.462;2023-03-31T18:06:08;20.00;62.60
79065;DHT22;68469;51.502;7.462;2023-03-31T18:08:36;20.00;62.50
79065;DHT22;68469;51.502;7.462;2023-03-31T18:11:02;20.10;62.50
79065;DHT22;68469;51.502;7.462;2023-03-31T18:13:30;20.10;62.90
79065;DHT22;68469;51.502;7.462;2023-03-31T18:15:56;20.10;62.50
79065;DHT22;68469;51.502;7.462;2023-03-31T18:18:22;20.10;62.50
79065;DHT22;68469;51.502;7.462;2023-03-31T18:20:50;20.10;62.70
79065;DHT22;68469;51.502;7.462;2023-03-31T18:23:16;20.10;62.50
79065;DHT22;68469;51.502;7.462;2023-03-31T18:25:42;20.10;63.00
79065;DHT22;68469;51.502;7.462;2023-03-31T18:28:13;20.10;62.70
79065;DHT22;68469;51.502;7.462;2023-03-31T18:30:39;20.10;63.40
79065;DHT22;68469;51.502;7.462;2023-03-31T18:33:05;20.10;63.00
79065;DHT22;68469;51.502;7.462;2023-03-31T18:35:31;20.10;62.70
79065;DHT22;68469;51.502;7.462;2023-03-31T18:37:56;20.10;62.70
79065;DHT22;68469;51.502;7.462;2023-03-31T18:40:22;20.20;63.40
79065;DHT22;68469;51.502;7.462;2023-03-31T18:42:48;20.20;63.30
79065;DHT22;68469;51.502;7.462;2023-03-31T18:45:15;20.20;62.90
79065;DHT22;68469;51.502;7.462;2023-03-31T18:47:41;20.20;62.80
79065;DHT22;68469;51.502;7.462;2023-03-31T18:50:07;20.10;63.00
79065;DHT22;68469;51.502;7.462;2023-03-31T18:52:34;20.10;62.90
79065;DHT22;68469;51.502;7.462;2023-03-31T18:55:01;20.10;63.00